Time;durP1;ratioP1;P1;durP2;ratioP2;P2;SDS_P1;SDS_P2;PMS_P1;PMS_P2;Temp;Humidity;BMP_temperature;BMP_pressure;BME280_temperature;BME280_humidity;BME280_pressure;Samples;Min_cycle;Max_cycle;Signal;HPM_P1;HPM_P2
2023/07/18 00:02:20;;;;;;;4.57;4.17;;;23.00;42.60;;;;;;20794;6822;117238;-76
2023/07/18 00:04:45;;;;;;;4.27;3.97;;;22.80;42.60;;;;;;20794;6822;120910;-76
2023/07/18 00:07:12;;;;;;;4.57;4.17;;;22.20;43.20;;;;;;20796;6822;116889;-75
2023/07/18 00:09:39;;;;;;;5.00;3.97;;;22.10;43.10;;;;;;20772;6822;120842;-74
2023/07/18 00:12:03;;;;;;;5.00;4.50;;;22.00;43.30;;;;;;20565;6822;312186;-75
2023/07/18 00:14:29;;;;;;;6.50;4.20;;;22.20;43.60;;;;;;20780;6822;118033;-75
2023/07/18 00:16:57;;;;;;;6.28;4.05;;;22.00;43.50;;;;;;20784;6822;117431;-75
2023/07/18 00:19:24;;;;;;;4.95;4.50;;;21.90;43.40;;;;;;20580;6822;318583;-75
2023/07/18 00:21:49;;;;;;;5.40;4.67;;;22.20;43.60;;;;;;20560;6822;278620;-75
2023/07/18 00:24:15;;;;;;;4.77;4.37;;;22.50;43.30;;;;;;20799;6822;117311;-76
2023/07/18 00:26:41;;;;;;;4.72;4.32;;;22.50;43.50;;;;;;20581;6822;277487;-75
2023/07/18 00:29:07;;;;;;;6.20;4.65;;;22.50;43.50;;;;;;20569;6822;336004;-76
2023/07/18 00:31:32;;;;;;;5.43;4.63;;;22.70;43.00;;;;;;20578;6822;306347;-76
2023/07/18 00:34:00;;;;;;;4.93;4.53;;;22.90;42.70;;;;;;20563;6822;276592;-76
2023/07/18 00:36:26;;;;;;;5.03;4.68;;;23.10;42.50;;;;;;20590;6822;306613;-76
2023/07/18 00:38:52;;;;;;;4.93;4.53;;;23.10;42.10;;;;;;20792;6822;119201;-76
2023/07/18 00:41:17;;;;;;;5.00;4.60;;;22.80;42.30;;;;;;20576;6822;306860;-76
2023/07/18 00:43:43;;;;;;;4.53;4.13;;;22.60;42.70;;;;;;20774;6820;117129;-76
2023/07/18 00:46:10;;;;;;;5.60;5.10;;;22.30;43.30;;;;;;20578;6821;281162;-75
2023/07/18 00:48:35;;;;;;;5.17;4.70;;;22.30;43.30;;;;;;20577;6822;307857;-76
2023/07/18 00:51:00;;;;;;;4.93;4.45;;;22.50;43.30;;;;;;20570;6822;306464;-76
2023/07/18 00:53:26;;;;;;;4.53;4.20;;;22.60;43.10;;;;;;20793;6822;116144;-76
2023/07/18 00:55:51;;;;;;;4.60;4.13;;;22.30;43.20;;;;;;20761;6822;117387;-76
2023/07/18 00:58:17;;;;;;;6.40;5.00;;;21.90;43.70;;;;;;20581;6822;306459;-76
2023/07/18 01:00:42;;;;;;;4.70;4.33;;;21.90;44.20;;;;;;20794;6822;117013;-77
2023/07/18 01:03:09;;;;;;;5.27;4.87;;;21.50;44.30;;;;;;20787;6822;117054;-76
2023/07/18 01:05:34;;;;;;;5.57;4.90;;;21.50;44.30;;;;;;20558;6822;307203;-78
2023/07/18 01:08:00;;;;;;;5.77;5.17;;;21.70;44.80;;;;;;20530;6837;277535;-76
2023/07/18 01:10:26;;;;;;;4.47;4.17;;;21.80;44.10;;;;;;20781;6822;117188;-75
2023/07/18 01:12:54;;;;;;;4.20;3.90;;;21.80;44.10;;;;;;20781;6822;121193;-75
2023/07/18 01:15:21;;;;;;;6.73;5.17;;;21.50;45.00;;;;;;20571;6822;306782;-76
2023/07/18 01:17:46;;;;;;;5.67;4.90;;;21.50;44.90;;;;;;20564;6822;306901;-76
2023/07/18 01:20:19;;;;;;;4.70;4.30;;;21.80;44.50;;;;;;20780;6822;118025;-76
2023/07/18 01:22:45;;;;;;;5.07;4.67;;;21.60;44.40;;;;;;20574;6822;305849;-75
2023/07/18 01:25:11;;;;;;;4.62;4.28;;;21.70;44.70;;;;;;20753;6822;116072;-77
2023/07/18 01:27:37;;;;;;;4.80;4.43;;;21.50;44.70;;;;;;20760;6822;117112;-76
2023/07/18 01:30:01;;;;;;;4.70;4.10;;;21.10;45.00;;;;;;20569;6822;276889;-75
2023/07/18 01:32:27;;;;;;;6.60;4.93;;;21.30;45.60;;;;;;20581;6822;313144;-75
2023/07/18 01:34:52;;;;;;;7.17;4.93;;;21.50;45.20;;;;;;20574;6822;277189;-76
2023/07/18 01:37:18;;;;;;;5.77;5.20;;;21.80;45.10;;;;;;20571;6822;306393;-76
2023/07/18 01:39:44;;;;;;;6.57;4.40;;;22.00;45.70;;;;;;20765;6822;148614;-76
2023/07/18 01:42:10;;;;;;;7.33;5.03;;;21.60;46.20;;;;;;20567;6822;308187;-76
2023/07/18 01:44:36;;;;;;;5.47;4.97;;;21.60;46.10;;;;;;20573;6822;323040;-76
2023/07/18 01:47:02;;;;;;;5.15;4.57;;;21.70;45.70;;;;;;20785;6822;116519;-76
2023/07/18 01:49:26;;;;;;;6.20;5.27;;;21.40;45.80;;;;;;20570;6822;306417;-76
2023/07/18 01:51:52;;;;;;;5.10;4.62;;;21.40;45.80;;;;;;20771;6822;118563;-76
2023/07/18 01:54:20;;;;;;;5.50;4.95;;;21.30;45.70;;;;;;20576;6820;309344;-76
2023/07/18 01:56:45;;;;;;;5.20;4.80;;;21.30;45.70;;;;;;20576;6821;312144;-77
2023/07/18 01:59:11;;;;;;;5.40;5.00;;;21.50;45.20;;;;;;20575;6821;306397;-76
2023/07/18 02:01:36;;;;;;;5.13;4.63;;;21.70;45.00;;;;;;20777;6822;117891;-75
2023/07/18 02:04:02;;;;;;;5.65;5.20;;;21.40;45.20;;;;;;20583;6822;306693;-77
2023/07/18 02:06:27;;;;;;;5.50;5.00;;;21.40;45.60;;;;;;20584;6822;284742;-77
2023/07/18 02:08:53;;;;;;;6.40;5.15;;;21.50;45.60;;;;;;20584;6822;277491;-76
2023/07/18 02:11:18;;;;;;;4.93;4.40;;;21.70;45.40;;;;;;20786;6822;116142;-76
2023/07/18 02:13:44;;;;;;;4.77;4.30;;;21.30;45.50;;;;;;20771;6822;123197;-76
2023/07/18 02:16:10;;;;;;;4.12;3.83;;;20.90;46.10;;;;;;20773;6822;117364;-76
2023/07/18 02:18:35;;;;;;;5.22;4.75;;;20.50;46.60;;;;;;20584;6822;280137;-76
2023/07/18 02:21:01;;;;;;;5.23;4.87;;;20.60;47.30;;;;;;20787;6822;120255;-76
2023/07/18 02:23:32;;;;;;;5.30;4.67;;;20.60;47.30;;;;;;20581;6822;280543;-76
2023/07/18 02:25:58;;;;;;;5.43;4.57;;;20.60;47.20;;;;;;20786;6822;119955;-76
2023/07/18 02:28:25;;;;;;;4.70;4.40;;;20.50;47.10;;;;;;20822;6822;116990;-75
2023/07/18 02:30:49;;;;;;;4.82;4.53;;;20.30;47.40;;;;;;20588;6822;297755;-75
2023/07/18 02:33:14;;;;;;;5.72;4.40;;;20.40;48.00;;;;;;20808;6822;117292;-75
2023/07/18 02:35:40;;;;;;;5.00;4.60;;;20.30;47.80;;;;;;20803;6822;120064;-77
2023/07/18 02:38:06;;;;;;;9.55;5.68;;;20.00;48.00;;;;;;20540;6822;311582;-74
2023/07/18 02:40:31;;;;;;;5.72;5.22;;;20.20;48.60;;;;;;20547;6822;343795;-75
2023/07/18 02:42:57;;;;;;;4.97;4.53;;;20.50;48.10;;;;;;20788;6822;116984;-76
2023/07/18 02:45:23;;;;;;;5.70;4.47;;;20.40;47.90;;;;;;20785;6822;117256;-76
2023/07/18 02:47:48;;;;;;;5.03;4.53;;;20.00;48.10;;;;;;20766;6822;119493;-75
2023/07/18 02:50:14;;;;;;;5.30;4.67;;;19.80;48.50;;;;;;20571;6822;282790;-76
2023/07/18 02:52:39;;;;;;;5.70;5.15;;;19.90;48.80;;;;;;20557;6822;306877;-76
2023/07/18 02:55:05;;;;;;;4.90;4.47;;;20.20;48.40;;;;;;20562;6822;281391;-75
2023/07/18 02:57:31;;;;;;;5.73;5.13;;;20.40;47.90;;;;;;20517;6822;280656;-75
2023/07/18 02:59:57;;;;;;;8.45;4.72;;;20.60;47.50;;;;;;20740;6822;116842;-76
2023/07/18 03:02:22;;;;;;;5.07;4.68;;;20.30;47.60;;;;;;20529;6822;308312;-76
2023/07/18 03:04:48;;;;;;;4.70;4.30;;;20.20;47.80;;;;;;20744;6820;117343;-75
2023/07/18 03:07:13;;;;;;;4.97;4.47;;;20.00;47.90;;;;;;20525;6821;307214;-75
2023/07/18 03:09:39;;;;;;;5.28;4.87;;;20.00;48.40;;;;;;20508;6821;306509;-76
2023/07/18 03:12:06;;;;;;;5.80;4.50;;;20.20;48.00;;;;;;20770;6822;119797;-76
2023/07/18 03:14:30;;;;;;;4.80;4.40;;;20.00;48.00;;;;;;20562;6822;306902;-77
2023/07/18 03:16:56;;;;;;;4.83;4.27;;;20.00;48.10;;;;;;20786;6822;117499;-76
2023/07/18 03:19:21;;;;;;;4.77;4.33;;;19.90;48.30;;;;;;20783;6822;119626;-76
2023/07/18 03:21:47;;;;;;;5.90;5.10;;;19.60;48.60;;;;;;20553;6822;307640;-77
2023/07/18 03:24:13;;;;;;;7.17;4.50;;;19.60;48.90;;;;;;20782;6822;117332;-78
2023/07/18 03:26:39;;;;;;;5.68;4.95;;;19.70;49.00;;;;;;20576;6822;306379;-76
2023/07/18 03:29:06;;;;;;;6.03;5.07;;;20.10;49.10;;;;;;20577;6822;277900;-74
2023/07/18 03:31:31;;;;;;;4.40;4.10;;;20.10;48.40;;;;;;20785;6822;122920;-76
2023/07/18 03:33:57;;;;;;;4.18;3.87;;;20.00;48.30;;;;;;20762;6822;117347;-75
2023/07/18 03:36:22;;;;;;;4.43;4.03;;;19.80;48.50;;;;;;20785;6822;123407;-74
2023/07/18 03:38:49;;;;;;;6.43;4.30;;;19.40;48.80;;;;;;20784;6822;120788;-74
2023/07/18 03:41:14;;;;;;;6.90;4.87;;;19.40;48.80;;;;;;20577;6822;326719;-78
2023/07/18 03:43:40;;;;;;;5.43;4.67;;;19.60;48.60;;;;;;20773;6822;117027;-76
2023/07/18 03:46:06;;;;;;;5.13;4.60;;;19.60;48.60;;;;;;20585;6822;304241;-76
2023/07/18 03:48:32;;;;;;;5.00;4.60;;;19.70;49.10;;;;;;20571;6822;306438;-76
2023/07/18 03:51:00;;;;;;;5.00;4.60;;;19.90;48.60;;;;;;20533;6822;306897;-77
2023/07/18 03:53:26;;;;;;;4.83;4.37;;;20.10;48.50;;;;;;20788;6822;116378;-77
2023/07/18 03:55:52;;;;;;;5.10;4.43;;;20.00;47.90;;;;;;20777;6822;117029;-78
2023/07/18 03:58:18;;;;;;;5.40;4.90;;;19.60;48.20;;;;;;20582;6822;306462;-79
2023/07/18 04:00:43;;;;;;;5.15;4.65;;;19.70;48.70;;;;;;20586;6822;276572;-76
2023/07/18 04:03:13;;;;;;;4.70;4.40;;;19.90;48.50;;;;;;20799;6822;118582;-77
2023/07/18 04:05:36;;;;;;;5.57;5.03;;;19.70;48.50;;;;;;20567;6822;306006;-77
2023/07/18 04:08:02;;;;;;;5.03;4.53;;;19.70;48.50;;;;;;20825;6822;116569;-77
2023/07/18 04:10:28;;;;;;;6.50;4.50;;;19.30;49.10;;;;;;20802;6822;117119;-76
2023/07/18 04:12:54;;;;;;;4.43;4.03;;;19.20;49.00;;;;;;20798;6822;117180;-77
2023/07/18 04:15:21;;;;;;;5.13;4.60;;;19.10;49.40;;;;;;20814;6822;117450;-77
2023/07/18 04:17:48;;;;;;;6.97;4.50;;;18.80;49.60;;;;;;20791;6820;118510;-77
2023/07/18 04:20:14;;;;;;;4.53;4.20;;;18.80;49.60;;;;;;20799;6821;117158;-77
2023/07/18 04:22:42;;;;;;;5.05;4.65;;;18.90;50.40;;;;;;20598;6821;339054;-76
2023/07/18 04:25:08;;;;;;;5.13;4.63;;;18.90;50.10;;;;;;20783;6822;116993;-76
2023/07/18 04:27:33;;;;;;;5.00;4.30;;;19.00;49.70;;;;;;20792;6822;117224;-74
2023/07/18 04:29:59;;;;;;;4.67;4.27;;;18.90;49.80;;;;;;20772;6822;117045;-75
2023/07/18 04:32:24;;;;;;;7.05;4.75;;;18.80;49.80;;;;;;20582;6822;277757;-74
2023/07/18 04:34:50;;;;;;;5.87;4.30;;;19.10;49.90;;;;;;20791;6822;117705;-77
2023/07/18 04:37:15;;;;;;;5.15;4.70;;;19.20;49.70;;;;;;20585;6822;277366;-75
2023/07/18 04:39:41;;;;;;;4.67;4.30;;;19.40;49.50;;;;;;20763;6822;121444;-75
2023/07/18 04:42:07;;;;;;;4.80;4.30;;;19.30;49.30;;;;;;20773;6822;117302;-76
2023/07/18 04:44:33;;;;;;;6.23;4.53;;;19.20;49.60;;;;;;20758;6822;117522;-75
2023/07/18 04:47:01;;;;;;;4.83;4.50;;;19.00;49.80;;;;;;20789;6822;116963;-79
2023/07/18 04:49:28;;;;;;;4.40;4.10;;;19.20;51.20;;;;;;20577;6822;310120;-74
2023/07/18 04:51:54;;;;;;;4.93;4.50;;;19.20;50.60;;;;;;20522;6822;335589;-74
2023/07/18 04:54:20;;;;;;;4.10;3.90;;;19.70;49.40;;;;;;20746;6822;117273;-73
2023/07/18 04:56:45;;;;;;;4.27;3.87;;;19.80;49.00;;;;;;20774;6822;117001;-74
2023/07/18 04:59:11;;;;;;;5.50;4.37;;;20.00;49.50;;;;;;20563;6822;307118;-74
2023/07/18 05:01:37;;;;;;;4.50;4.10;;;19.90;48.60;;;;;;20570;6822;339618;-73
2023/07/18 05:04:03;;;;;;;4.30;3.90;;;20.50;48.10;;;;;;20760;6822;120665;-74
2023/07/18 05:06:28;;;;;;;6.23;4.20;;;20.60;48.00;;;;;;20777;6822;117103;-74
2023/07/18 05:08:54;;;;;;;4.30;4.00;;;20.50;48.00;;;;;;20574;6822;277408;-75
2023/07/18 05:11:19;;;;;;;4.00;3.70;;;20.90;47.10;;;;;;20772;6822;117730;-76
2023/07/18 05:13:45;;;;;;;4.00;3.70;;;21.10;47.00;;;;;;20768;6822;119307;-75
2023/07/18 05:16:10;;;;;;;4.33;3.30;;;21.10;47.00;;;;;;20761;6822;117910;-77
2023/07/18 05:18:36;;;;;;;3.57;3.37;;;21.00;47.00;;;;;;20762;6822;119627;-74
2023/07/18 05:21:02;;;;;;;3.97;3.67;;;21.00;46.90;;;;;;20763;6822;117088;-75
2023/07/18 05:23:27;;;;;;;4.15;3.80;;;21.00;46.90;;;;;;20761;6822;117704;-74
2023/07/18 05:25:56;;;;;;;3.87;3.30;;;21.10;46.90;;;;;;20727;6822;117540;-74
2023/07/18 05:28:19;;;;;;;4.27;3.90;;;21.50;45.70;;;;;;20561;6820;275905;-76
2023/07/18 05:30:48;;;;;;;4.50;4.00;;;21.50;45.70;;;;;;20564;6821;279230;-76
2023/07/18 05:33:14;;;;;;;4.85;3.78;;;22.40;44.90;;;;;;20591;6821;306960;-78
2023/07/18 05:35:40;;;;;;;4.55;4.20;;;22.70;43.60;;;;;;20571;6822;334977;-77
2023/07/18 05:38:06;;;;;;;3.90;3.63;;;22.60;43.50;;;;;;20812;6822;123482;-77
2023/07/18 05:40:31;;;;;;;4.23;3.83;;;22.50;43.90;;;;;;20805;6822;119201;-78
2023/07/18 05:42:57;;;;;;;4.07;3.70;;;22.20;44.50;;;;;;20795;6822;116754;-77
2023/07/18 05:45:24;;;;;;;4.43;3.25;;;21.90;44.90;;;;;;20789;6822;117129;-77
2023/07/18 05:47:49;;;;;;;4.27;3.87;;;21.80;45.30;;;;;;20559;6822;305747;-74
2023/07/18 05:50:16;;;;;;;3.70;3.40;;;22.20;44.30;;;;;;20789;6822;118107;-74
2023/07/18 05:52:41;;;;;;;4.05;3.75;;;22.10;44.80;;;;;;20581;6822;279034;-79
2023/07/18 05:55:08;;;;;;;4.37;4.00;;;22.50;44.50;;;;;;20495;6822;277404;-78
2023/07/18 05:57:35;;;;;;;4.78;3.87;;;22.90;43.80;;;;;;20470;6822;339861;-79
2023/07/18 06:00:06;;;;;;;4.07;3.70;;;23.30;43.40;;;;;;20518;6822;277960;-80
2023/07/18 06:02:28;;;;;;;3.50;3.30;;;23.50;43.30;;;;;;20744;6822;117229;-77
2023/07/18 06:04:55;;;;;;;4.37;3.97;;;23.50;43.20;;;;;;20583;6822;305729;-77
2023/07/18 06:07:19;;;;;;;4.03;3.73;;;23.60;42.90;;;;;;20570;6822;276697;-76
2023/07/18 06:09:47;;;;;;;3.73;3.37;;;23.80;42.50;;;;;;20780;6822;121489;-77
2023/07/18 06:12:13;;;;;;;4.37;4.03;;;23.70;42.80;;;;;;20574;6822;339237;-77
2023/07/18 06:14:38;;;;;;;5.33;3.57;;;23.80;42.50;;;;;;20584;6822;277890;-78
2023/07/18 06:17:06;;;;;;;4.30;4.00;;;24.50;41.50;;;;;;20578;6822;277994;-76
2023/07/18 06:19:32;;;;;;;4.37;3.90;;;24.50;41.40;;;;;;20571;6822;306476;-76
2023/07/18 06:21:57;;;;;;;3.93;3.60;;;24.80;40.90;;;;;;20760;6822;143981;-77
2023/07/18 06:24:24;;;;;;;4.00;3.60;;;24.80;41.30;;;;;;20583;6822;277035;-76
2023/07/18 06:26:49;;;;;;;3.60;3.30;;;24.90;40.30;;;;;;20787;6822;117023;-76
2023/07/18 06:29:15;;;;;;;3.37;3.17;;;24.80;41.70;;;;;;20787;6822;117101;-76
2023/07/18 06:31:40;;;;;;;3.70;3.40;;;24.80;41.70;;;;;;20752;6822;118052;-79
2023/07/18 06:34:08;;;;;;;5.23;3.70;;;25.80;40.20;;;;;;20577;6822;277998;-77
2023/07/18 06:36:33;;;;;;;5.57;3.53;;;25.80;40.10;;;;;;20595;6822;306783;-82
2023/07/18 06:39:00;;;;;;;3.73;3.37;;;26.90;38.20;;;;;;20825;6822;119747;-81
2023/07/18 06:41:26;;;;;;;3.80;3.60;;;27.50;38.50;;;;;;20600;6820;277719;-80
2023/07/18 06:43:52;;;;;;;4.07;3.78;;;28.20;36.10;;;;;;20570;6821;339882;-74
2023/07/18 06:46:17;;;;;;;3.40;3.20;;;29.00;34.90;;;;;;20793;6821;123931;-76
2023/07/18 06:48:43;;;;;;;4.07;3.50;;;29.30;36.20;;;;;;20791;6822;123374;-76
2023/07/18 06:51:08;;;;;;;4.18;3.70;;;29.30;35.80;;;;;;20576;6822;308721;-75
2023/07/18 06:53:34;;;;;;;3.80;3.40;;;29.80;33.50;;;;;;20573;6822;281046;-76
2023/07/18 06:55:59;;;;;;;3.60;3.30;;;30.50;32.60;;;;;;20767;6822;119569;-76
2023/07/18 06:58:25;;;;;;;4.33;3.27;;;30.70;33.30;;;;;;20792;6822;117634;-79
2023/07/18 07:00:51;;;;;;;4.07;3.60;;;30.70;33.50;;;;;;20586;6822;278996;-78
2023/07/18 07:03:16;;;;;;;5.13;3.53;;;31.00;31.80;;;;;;20579;6822;276568;-76
2023/07/18 07:05:42;;;;;;;3.77;3.47;;;31.60;30.90;;;;;;20568;6822;277956;-76
2023/07/18 07:08:10;;;;;;;4.12;3.62;;;32.00;30.40;;;;;;20277;6822;290657;-76
2023/07/18 07:10:35;;;;;;;4.20;3.80;;;32.30;30.10;;;;;;20587;6822;307379;-73
2023/07/18 07:13:05;;;;;;;3.40;3.20;;;32.50;29.90;;;;;;20789;6822;122834;-74
2023/07/18 07:15:32;;;;;;;3.60;3.30;;;32.30;30.20;;;;;;20575;6822;338907;-76
2023/07/18 07:17:56;;;;;;;3.67;3.10;;;32.30;30.00;;;;;;20529;6822;310661;-76
2023/07/18 07:20:24;;;;;;;3.97;2.97;;;32.30;30.20;;;;;;20773;6822;117368;-74
2023/07/18 07:22:48;;;;;;;3.27;3.07;;;32.20;30.10;;;;;;20760;6822;119257;-76
2023/07/18 07:25:14;;;;;;;3.37;3.17;;;31.90;30.70;;;;;;20761;6822;118506;-74
2023/07/18 07:27:39;;;;;;;3.67;3.37;;;31.60;30.70;;;;;;20550;6822;310394;-74
2023/07/18 07:30:07;;;;;;;3.60;3.30;;;31.60;29.90;;;;;;20759;6822;120075;-75
2023/07/18 07:32:32;;;;;;;3.23;3.03;;;31.50;30.00;;;;;;20791;6822;117087;-75
2023/07/18 07:34:58;;;;;;;2.70;2.60;;;31.30;30.20;;;;;;20793;6822;118643;-75
2023/07/18 07:37:23;;;;;;;3.58;2.80;;;31.10;30.10;;;;;;20567;6822;308597;-75
2023/07/18 07:39:49;;;;;;;4.07;2.80;;;31.10;28.90;;;;;;20774;6822;117600;-75
2023/07/18 07:42:15;;;;;;;3.10;2.90;;;30.90;29.10;;;;;;20781;6822;117207;-74
2023/07/18 07:44:40;;;;;;;3.35;3.15;;;30.60;29.30;;;;;;20572;6822;278148;-76
2023/07/18 07:47:06;;;;;;;4.60;3.20;;;30.60;29.10;;;;;;20580;6822;276717;-76
2023/07/18 07:49:31;;;;;;;3.20;2.73;;;30.90;28.70;;;;;;20564;6822;306835;-75
2023/07/18 07:51:57;;;;;;;3.10;2.80;;;31.10;28.50;;;;;;20552;6820;340593;-75
2023/07/18 07:54:22;;;;;;;3.00;2.70;;;31.30;28.20;;;;;;20781;6821;117394;-75
2023/07/18 07:56:49;;;;;;;2.95;2.75;;;31.20;29.20;;;;;;20566;6821;333563;-75
2023/07/18 07:59:14;;;;;;;2.80;2.60;;;31.20;29.10;;;;;;20779;6822;117004;-75
2023/07/18 08:01:41;;;;;;;3.00;2.70;;;31.30;28.70;;;;;;20564;6822;306980;-75
2023/07/18 08:04:07;;;;;;;6.10;2.95;;;31.60;28.20;;;;;;20571;6822;311805;-75
2023/07/18 08:06:32;;;;;;;3.47;2.40;;;31.60;28.20;;;;;;20782;6822;117037;-74
2023/07/18 08:08:58;;;;;;;2.60;2.40;;;31.60;28.40;;;;;;20576;6822;280825;-80
2023/07/18 08:11:24;;;;;;;3.00;2.63;;;31.70;28.00;;;;;;20577;6822;306479;-74
2023/07/18 08:13:53;;;;;;;4.67;2.37;;;31.90;27.50;;;;;;20774;6822;119814;-74
2023/07/18 08:16:17;;;;;;;2.60;2.40;;;31.70;27.70;;;;;;20586;6822;277512;-74
2023/07/18 08:18:43;;;;;;;2.27;2.10;;;31.50;28.00;;;;;;20793;6822;123352;-77
2023/07/18 08:21:09;;;;;;;3.53;2.50;;;31.50;27.90;;;;;;20586;6822;300356;-75
2023/07/18 08:23:34;;;;;;;2.83;2.57;;;31.60;27.40;;;;;;20798;6822;116052;-73
2023/07/18 08:26:00;;;;;;;3.40;2.40;;;31.40;27.40;;;;;;20557;6822;310159;-75
2023/07/18 08:28:26;;;;;;;2.62;2.42;;;31.70;27.50;;;;;;20589;6822;291918;-75
2023/07/18 08:30:52;;;;;;;2.70;2.40;;;31.70;27.50;;;;;;20798;6822;117022;-76
2023/07/18 08:33:19;;;;;;;2.55;2.33;;;31.60;27.40;;;;;;20596;6822;277064;-76
2023/07/18 08:35:44;;;;;;;5.63;2.80;;;31.60;26.90;;;;;;20751;6822;117177;-75
2023/07/18 08:38:10;;;;;;;2.70;2.10;;;31.50;27.50;;;;;;20792;6822;119125;-75
2023/07/18 08:40:35;;;;;;;3.07;2.57;;;31.30;27.90;;;;;;20785;6822;119595;-74
2023/07/18 08:43:01;;;;;;;2.57;2.37;;;31.20;28.20;;;;;;20571;6822;308522;-75
2023/07/18 08:45:26;;;;;;;5.63;2.37;;;31.40;27.70;;;;;;20786;6822;117141;-76
2023/07/18 08:47:56;;;;;;;2.37;2.23;;;31.20;28.00;;;;;;20749;6822;120207;-75
2023/07/18 08:50:18;;;;;;;2.80;2.30;;;31.20;28.00;;;;;;20777;6822;117672;-75
2023/07/18 08:52:44;;;;;;;2.60;2.40;;;31.10;28.10;;;;;;20785;6822;119445;-74
2023/07/18 08:55:09;;;;;;;2.23;2.03;;;31.00;28.30;;;;;;20787;6822;117120;-75
2023/07/18 08:57:35;;;;;;;3.27;2.50;;;30.90;28.60;;;;;;20594;6822;278450;-74
2023/07/18 09:00:00;;;;;;;4.53;2.43;;;31.20;28.40;;;;;;20564;6822;277560;-75
2023/07/18 09:02:27;;;;;;;5.97;2.30;;;31.60;28.20;;;;;;20793;6822;117746;-74
2023/07/18 09:04:52;;;;;;;3.33;2.53;;;31.70;28.30;;;;;;20595;6820;307200;-77
2023/07/18 09:07:19;;;;;;;5.70;2.73;;;32.00;28.60;;;;;;20794;6821;121141;-78
2023/07/18 09:09:46;;;;;;;4.80;2.30;;;32.30;27.70;;;;;;20559;6822;305839;-80
2023/07/18 09:12:10;;;;;;;3.47;2.57;;;32.30;27.60;;;;;;20568;6822;306540;-82
2023/07/18 09:14:36;;;;;;;4.53;2.40;;;32.80;27.50;;;;;;20790;6822;119856;-78
2023/07/18 09:17:03;;;;;;;4.23;2.40;;;32.80;27.50;;;;;;20582;6822;277728;-78
2023/07/18 09:19:35;;;;;;;2.53;2.23;;;33.00;27.30;;;;;;20784;6822;117416;-77
2023/07/18 09:22:01;;;;;;;4.23;2.40;;;33.00;27.30;;;;;;20779;6822;117494;-77
2023/07/18 09:24:29;;;;;;;4.32;2.55;;;32.80;27.40;;;;;;20569;6822;307378;-77
2023/07/18 09:26:54;;;;;;;4.50;2.60;;;33.00;27.60;;;;;;20556;6822;277368;-77
2023/07/18 09:29:20;;;;;;;4.87;3.00;;;33.30;26.80;;;;;;20574;6822;306841;-79
2023/07/18 09:31:46;;;;;;;3.72;3.42;;;33.50;26.20;;;;;;20562;6822;306492;-79
2023/07/18 09:34:12;;;;;;;4.30;2.63;;;33.40;26.50;;;;;;20803;6822;116710;-78
2023/07/18 09:36:39;;;;;;;3.33;2.30;;;33.30;26.40;;;;;;20786;6822;119150;-79
2023/07/18 09:39:05;;;;;;;4.12;2.50;;;33.10;26.80;;;;;;20578;6822;307470;-83
2023/07/18 09:41:30;;;;;;;2.50;2.33;;;33.20;26.80;;;;;;20780;6822;119604;-78
2023/07/18 09:43:57;;;;;;;2.23;2.13;;;33.10;26.90;;;;;;20734;6822;117370;-78
2023/07/18 09:46:22;;;;;;;2.10;2.00;;;33.00;27.30;;;;;;20780;6822;117929;-76
2023/07/18 09:48:48;;;;;;;3.10;2.70;;;32.80;27.40;;;;;;20576;6822;306228;-77
2023/07/18 09:51:13;;;;;;;2.90;2.70;;;33.00;27.20;;;;;;20591;6822;276591;-77
2023/07/18 09:53:39;;;;;;;3.50;2.33;;;33.40;26.80;;;;;;20800;6822;117247;-79
2023/07/18 09:56:04;;;;;;;2.87;2.67;;;33.50;27.10;;;;;;20564;6822;306752;-80
2023/07/18 09:58:30;;;;;;;3.30;2.60;;;33.60;27.40;;;;;;20591;6822;309407;-76
2023/07/18 10:00:55;;;;;;;3.83;2.67;;;33.90;27.20;;;;;;20568;6822;306891;-76
2023/07/18 10:03:21;;;;;;;3.20;2.90;;;34.20;27.70;;;;;;20783;6822;117077;-74
2023/07/18 10:05:47;;;;;;;3.33;2.77;;;34.20;27.10;;;;;;20552;6822;306223;-74
2023/07/18 10:08:13;;;;;;;3.13;2.50;;;34.20;27.10;;;;;;20596;6822;282076;-74
2023/07/18 10:10:38;;;;;;;3.97;2.87;;;34.40;26.80;;;;;;20568;6822;307122;-74
2023/07/18 10:13:05;;;;;;;3.83;3.03;;;34.50;26.70;;;;;;20542;6822;338332;-75
2023/07/18 10:15:30;;;;;;;5.80;2.60;;;34.50;26.70;;;;;;20776;6820;119761;-74
2023/07/18 10:17:56;;;;;;;3.33;2.93;;;34.20;26.90;;;;;;20650;6821;130580;-77
2023/07/18 10:20:22;;;;;;;6.63;3.40;;;33.70;27.00;;;;;;20495;6821;307155;-74
2023/07/18 10:22:57;;;;;;;4.10;3.00;;;33.60;27.20;;;;;;20570;6822;279135;-75
2023/07/18 10:25:20;;;;;;;3.13;2.93;;;33.50;27.10;;;;;;20786;6822;116988;-80
2023/07/18 10:27:46;;;;;;;3.67;3.10;;;33.10;27.20;;;;;;20551;6822;276322;-81
2023/07/18 10:30:12;;;;;;;4.75;3.30;;;32.80;27.50;;;;;;20583;6822;309963;-78
2023/07/18 10:32:38;;;;;;;3.70;3.40;;;32.70;27.50;;;;;;20776;6822;117992;-82
2023/07/18 10:35:07;;;;;;;6.03;3.07;;;31.90;28.70;;;;;;20775;6822;117035;-82
2023/07/18 10:37:32;;;;;;;3.35;2.92;;;31.80;28.20;;;;;;20565;6822;282100;-81
2023/07/18 10:39:58;;;;;;;3.90;3.50;;;31.80;28.80;;;;;;20573;6822;305644;-83
2023/07/18 10:42:25;;;;;;;3.43;3.23;;;31.90;28.70;;;;;;20807;6822;117371;-82
2023/07/18 10:45:00;;;;;;;4.37;3.12;;;31.70;28.70;;;;;;20589;6822;310453;-82
2023/07/18 10:47:25;;;;;;;5.53;3.07;;;31.80;29.40;;;;;;20774;6822;119163;-83
2023/07/18 10:49:52;;;;;;;3.50;3.20;;;31.90;29.20;;;;;;20549;6822;306052;-82
2023/07/18 10:52:18;;;;;;;3.13;2.93;;;32.20;28.50;;;;;;20802;6822;117474;-83
2023/07/18 10:54:44;;;;;;;3.90;3.10;;;32.30;28.50;;;;;;20598;6822;277589;-81
2023/07/18 10:57:09;;;;;;;4.33;3.03;;;32.50;28.50;;;;;;20710;6822;116919;-79
2023/07/18 10:59:36;;;;;;;3.43;3.13;;;32.60;28.50;;;;;;20592;6822;306775;-80
2023/07/18 11:02:06;;;;;;;3.90;3.12;;;32.80;28.70;;;;;;20556;6822;329006;-85
2023/07/18 11:04:32;;;;;;;3.57;3.23;;;33.10;28.00;;;;;;20776;6822;118215;-85
2023/07/18 11:07:11;;;;;;;4.95;3.20;;;32.90;28.20;;;;;;20404;6822;308504;-84
2023/07/18 11:09:53;;;;;;;3.27;2.87;;;32.90;28.80;;;;;;20677;6822;120748;-81
2023/07/18 11:12:47;;;;;;;4.27;3.83;;;32.60;28.80;;;;;;20473;6822;276790;-78
2023/07/18 11:15:15;;;;;;;3.83;3.20;;;32.60;29.20;;;;;;20407;6822;346014;-78
2023/07/18 11:17:44;;;;;;;3.60;3.40;;;32.70;29.20;;;;;;20758;6822;117548;-78
2023/07/18 11:20:19;;;;;;;3.90;3.70;;;32.50;29.30;;;;;;20783;6822;125934;-78
2023/07/18 11:22:45;;;;;;;4.37;3.47;;;32.10;29.60;;;;;;20801;6822;116423;-79
2023/07/18 11:25:12;;;;;;;3.60;3.30;;;31.80;29.90;;;;;;20592;6822;279737;-80
2023/07/18 11:27:37;;;;;;;3.70;3.40;;;31.80;29.90;;;;;;20603;6820;306093;-79
2023/07/18 11:30:04;;;;;;;4.10;3.70;;;31.90;29.40;;;;;;20574;6821;281261;-80
2023/07/18 11:32:32;;;;;;;4.37;3.10;;;31.80;29.20;;;;;;20769;6821;117820;-80
2023/07/18 11:34:58;;;;;;;4.15;3.70;;;31.40;29.60;;;;;;20507;6822;318460;-80
2023/07/18 11:37:24;;;;;;;3.67;3.40;;;30.70;30.90;;;;;;20802;6822;116182;-79
2023/07/18 11:39:50;;;;;;;3.90;3.50;;;30.60;30.80;;;;;;20773;6822;119621;-79
2023/07/18 11:42:17;;;;;;;4.20;3.90;;;30.10;32.30;;;;;;20809;6822;66684;-75
2023/07/18 11:44:44;;;;;;;5.30;3.77;;;29.70;33.60;;;;;;20575;6822;277957;-83
2023/07/18 11:47:17;;;;;;;3.87;3.57;;;29.70;35.70;;;;;;20793;6822;116976;-82
2023/07/18 11:50:02;;;;;;;3.80;3.50;;;29.50;35.20;;;;;;20762;6822;117210;-83
2023/07/18 11:52:29;;;;;;;3.80;3.60;;;29.10;35.40;;;;;;20801;6822;116556;-81
2023/07/18 11:54:54;;;;;;;3.53;3.23;;;28.70;35.70;;;;;;20820;6822;118215;-82
2023/07/18 11:57:20;;;;;;;4.20;3.80;;;28.40;36.50;;;;;;20598;6822;304415;-79
2023/07/18 11:59:46;;;;;;;4.15;3.72;;;28.50;39.30;;;;;;20588;6822;335543;-81
2023/07/18 12:02:11;;;;;;;3.90;3.60;;;28.80;40.30;;;;;;20795;6822;117522;-82
2023/07/18 12:04:38;;;;;;;6.53;3.57;;;28.80;39.80;;;;;;20784;6822;117269;-78
2023/07/18 12:07:03;;;;;;;4.00;3.60;;;28.60;39.40;;;;;;20803;6822;118191;-79
2023/07/18 12:09:28;;;;;;;4.17;3.83;;;28.50;39.30;;;;;;20819;6822;116818;-82
2023/07/18 12:11:55;;;;;;;4.17;3.30;;;28.40;39.50;;;;;;20802;6822;117143;-83
2023/07/18 12:14:21;;;;;;;5.53;3.87;;;28.30;39.50;;;;;;20604;6822;283109;-83
2023/07/18 12:16:46;;;;;;;4.20;3.80;;;28.60;39.10;;;;;;20607;6822;290600;-83
2023/07/18 12:19:12;;;;;;;5.23;3.57;;;29.00;39.00;;;;;;20811;6822;117300;-82
2023/07/18 12:21:37;;;;;;;3.60;3.30;;;29.10;39.00;;;;;;20808;6822;117329;-81
2023/07/18 12:24:04;;;;;;;3.90;3.60;;;29.00;39.00;;;;;;20772;6822;123299;-81
2023/07/18 12:26:30;;;;;;;8.23;4.33;;;29.10;39.00;;;;;;20581;6822;276522;-84
2023/07/18 12:28:55;;;;;;;4.30;3.80;;;29.30;38.00;;;;;;20575;6822;310625;-82
2023/07/18 12:31:21;;;;;;;4.13;3.77;;;29.80;37.60;;;;;;20580;6822;336477;-80